Time;durP1;ratioP1;P1;durP2;ratioP2;P2;SDS_P1;SDS_P2;PMS_P1;PMS_P2;Temp;Humidity;BMP_temperature;BMP_pressure;BME280_temperature;BME280_humidity;BME280_pressure;Samples;Min_cycle;Max_cycle;Signal;HPM_P1;HPM_P2
2023/10/06 00:00:26;;;;;;;14.57;12.27;;;;;;;9.34;93.02;99053.53;5028166;28;20244;-78
2023/10/06 00:02:53;;;;;;;14.82;13.20;;;;;;;9.02;93.38;99038.16;5033789;28;20244;-77
2023/10/06 00:05:20;;;;;;;16.10;12.38;;;;;;;9.16;93.90;99066.34;5030180;28;20235;-78
2023/10/06 00:07:50;;;;;;;20.92;13.68;;;;;;;9.19;93.58;99062.44;5032210;28;20196;-78
2023/10/06 00:10:18;;;;;;;16.48;13.13;;;;;;;9.01;93.91;99070.72;5031641;28;20644;-77
2023/10/06 00:12:53;;;;;;;16.10;12.10;;;;;;;9.10;93.73;99067.84;5031088;28;20207;-77
2023/10/06 00:15:26;;;;;;;17.50;13.60;;;;;;;9.00;94.04;99060.94;5036067;28;20310;-77
2023/10/06 00:17:56;;;;;;;15.70;11.82;;;;;;;9.08;93.38;99067.19;5038556;28;20231;-78
2023/10/06 00:20:31;;;;;;;16.27;13.40;;;;;;;9.06;93.27;99063.81;5033426;28;20201;-78
2023/10/06 00:23:05;;;;;;;18.48;12.60;;;;;;;8.89;93.58;99067.50;5032519;28;20201;-77
2023/10/06 00:25:35;;;;;;;18.77;14.18;;;;;;;8.89;93.67;99066.66;5038374;28;20258;-77
2023/10/06 00:28:08;;;;;;;21.77;13.95;;;;;;;8.92;93.64;99064.47;5043545;28;20206;-77
2023/10/06 00:30:37;;;;;;;16.67;12.35;;;;;;;8.90;93.51;99060.25;5035652;28;20235;-77
2023/10/06 00:33:05;;;;;;;17.63;13.15;;;;;;;8.84;93.82;99064.44;5034156;28;20252;-78
2023/10/06 00:35:32;;;;;;;21.52;14.00;;;;;;;8.89;93.85;99061.25;5033460;28;20239;-77
2023/10/06 00:38:10;;;;;;;17.48;13.88;;;;;;;8.89;93.52;99058.53;5034932;28;20660;-77
2023/10/06 00:40:39;;;;;;;19.77;14.70;;;;;;;8.86;93.28;99064.28;5033101;28;20310;-77
2023/10/06 00:43:08;;;;;;;16.80;15.05;;;;;;;8.80;93.56;99059.53;5045051;28;20193;-78
2023/10/06 00:45:39;;;;;;;21.70;15.50;;;;;;;8.82;93.86;99052.97;5032280;28;20232;-77
2023/10/06 00:48:14;;;;;;;17.20;14.77;;;;;;;8.74;94.65;99045.72;5042042;28;20226;-77
2023/10/06 00:50:41;;;;;;;18.90;15.13;;;;;;;8.75;94.03;99046.56;5031632;28;20320;-77
2023/10/06 00:53:10;;;;;;;24.02;16.70;;;;;;;8.80;94.38;99043.34;5036565;28;20632;-77
2023/10/06 00:55:39;;;;;;;17.80;15.90;;;;;;;8.79;94.26;99049.75;5033972;28;20215;-76
2023/10/06 00:58:10;;;;;;;20.38;15.73;;;;;;;8.72;94.38;99044.19;5032265;28;20563;-77
2023/10/06 01:00:39;;;;;;;17.20;15.40;;;;;;;8.80;94.30;99041.47;5041283;28;20718;-77
2023/10/06 01:03:14;;;;;;;19.70;16.88;;;;;;;8.72;94.43;99033.41;5033770;28;20630;-77
2023/10/06 01:05:45;;;;;;;22.05;17.02;;;;;;;8.64;95.06;99054.97;5033465;28;20368;-77
2023/10/06 01:08:12;;;;;;;18.55;15.20;;;;;;;8.42;94.59;98991.69;5032522;28;20207;-77
2023/10/06 01:10:40;;;;;;;19.30;14.90;;;;;;;8.69;94.84;99037.28;5032455;28;20733;-77
2023/10/06 01:13:12;;;;;;;16.65;14.73;;;;;;;8.77;94.20;99028.34;5040084;28;20291;-77
2023/10/06 01:15:48;;;;;;;16.80;15.00;;;;;;;8.90;93.58;99033.25;5030981;28;20218;-78
2023/10/06 01:18:23;;;;;;;17.63;14.88;;;;;;;8.93;93.34;99038.31;5039813;28;20289;-77
2023/10/06 01:20:50;;;;;;;19.45;15.05;;;;;;;8.88;92.68;99030.72;5032404;28;20209;-78
2023/10/06 01:23:21;;;;;;;17.63;15.75;;;;;;;8.83;93.52;99035.75;5040926;28;20209;-77
2023/10/06 01:25:53;;;;;;;21.15;16.65;;;;;;;8.83;93.47;99024.97;5040267;28;20258;-77
2023/10/06 01:28:23;;;;;;;16.13;14.52;;;;;;;8.87;93.18;99029.00;5035365;28;20218;-77
2023/10/06 01:30:50;;;;;;;19.02;14.65;;;;;;;8.86;93.32;99026.47;5033124;28;20643;-78
2023/10/06 01:33:17;;;;;;;16.40;14.80;;;;;;;8.66;94.13;99026.81;5033195;28;20195;-77
2023/10/06 01:35:46;;;;;;;20.50;16.45;;;;;;;8.58;94.21;99029.47;5037855;28;20455;-78
2023/10/06 01:38:22;;;;;;;19.52;15.68;;;;;;;8.58;93.77;99028.63;5041398;28;20307;-77
2023/10/06 01:40:52;;;;;;;23.92;16.35;;;;;;;8.58;93.75;99040.28;5032857;28;20199;-78
2023/10/06 01:43:23;;;;;;;20.83;14.13;;;;;;;8.56;93.74;99031.50;5031799;28;20200;-77
2023/10/06 01:45:51;;;;;;;19.83;17.20;;;;;;;8.43;94.30;99035.69;5037674;28;20221;-77
2023/10/06 01:48:23;;;;;;;19.63;17.63;;;;;;;8.50;94.14;99026.75;5037015;28;20300;-78
2023/10/06 01:50:54;;;;;;;18.48;14.80;;;;;;;8.36;94.62;99024.69;5033984;28;20295;-77
2023/10/06 01:53:21;;;;;;;19.80;15.95;;;;;;;8.35;94.21;99023.00;5033353;28;20662;-78
2023/10/06 01:55:50;;;;;;;19.00;16.15;;;;;;;8.31;94.52;99027.00;5036966;28;20221;-77
2023/10/06 01:58:17;;;;;;;22.02;18.77;;;;;;;8.25;94.89;99022.25;5033961;28;20642;-78
2023/10/06 02:00:45;;;;;;;23.52;17.50;;;;;;;8.29;94.85;99023.63;5046240;28;20194;-77
2023/10/06 02:03:15;;;;;;;24.70;18.70;;;;;;;8.20;95.02;99019.22;5045091;28;20578;-77
2023/10/06 02:05:43;;;;;;;23.80;18.58;;;;;;;8.13;95.76;99020.84;5039652;28;20312;-78
2023/10/06 02:08:14;;;;;;;21.73;15.80;;;;;;;8.09;95.69;99028.44;5033226;28;21004;-78
2023/10/06 02:10:42;;;;;;;19.63;15.82;;;;;;;8.19;95.21;99023.75;5035830;28;20247;-78
2023/10/06 02:13:11;;;;;;;20.42;18.33;;;;;;;8.26;94.38;99015.88;5043007;28;20209;-77
2023/10/06 02:15:37;;;;;;;20.20;17.83;;;;;;;8.24;94.94;99016.03;5030941;28;20244;-77
2023/10/06 02:18:07;;;;;;;21.52;19.25;;;;;;;8.28;94.14;99014.69;5033438;28;20241;-77
2023/10/06 02:20:41;;;;;;;18.90;16.50;;;;;;;8.17;94.98;99011.44;5033507;28;20684;-77
2023/10/06 02:23:08;;;;;;;25.60;20.20;;;;;;;8.13;94.54;99010.06;5037008;28;20202;-78
2023/10/06 02:25:36;;;;;;;21.05;18.95;;;;;;;8.20;94.58;99013.81;5038229;28;20285;-77
2023/10/06 02:28:05;;;;;;;20.67;17.80;;;;;;;8.23;94.72;99008.94;5035772;28;20256;-77
2023/10/06 02:30:37;;;;;;;27.33;19.75;;;;;;;8.20;94.71;99003.88;5036040;28;20254;-77
2023/10/06 02:33:06;;;;;;;18.48;16.10;;;;;;;8.16;94.78;99007.06;5041045;28;20239;-77
2023/10/06 02:35:34;;;;;;;23.30;19.10;;;;;;;8.15;95.00;99008.91;5029986;28;20222;-78
2023/10/06 02:38:05;;;;;;;20.67;18.35;;;;;;;8.14;94.79;99003.66;5030154;28;20213;-77
2023/10/06 02:40:43;;;;;;;19.70;17.65;;;;;;;8.13;94.72;99001.97;5039976;28;20206;-77
2023/10/06 02:43:13;;;;;;;18.65;16.38;;;;;;;7.99;95.12;99001.63;5033101;28;20552;-77
2023/10/06 02:45:41;;;;;;;21.40;18.10;;;;;;;7.96;95.21;98998.38;5042749;28;20219;-77
2023/10/06 02:48:15;;;;;;;19.63;17.63;;;;;;;7.98;95.26;99009.84;5033619;28;20630;-77
2023/10/06 02:50:44;;;;;;;18.00;16.13;;;;;;;8.00;94.97;99008.69;5029694;28;20203;-77
2023/10/06 02:53:14;;;;;;;23.20;20.63;;;;;;;7.84;95.39;99005.06;5033421;28;20204;-77
2023/10/06 02:55:43;;;;;;;22.80;18.48;;;;;;;7.80;96.04;99015.31;5044922;28;20227;-78
2023/10/06 02:58:17;;;;;;;25.38;19.40;;;;;;;7.79;95.54;99019.03;5033269;28;20691;-78
2023/10/06 03:00:50;;;;;;;22.98;19.45;;;;;;;7.79;95.64;99021.75;5044773;28;20202;-77
2023/10/06 03:03:21;;;;;;;19.02;17.00;;;;;;;7.97;94.77;99013.56;5034196;28;20234;-77
2023/10/06 03:05:51;;;;;;;20.90;16.88;;;;;;;7.91;94.79;99009.66;5031086;28;20325;-77
2023/10/06 03:08:21;;;;;;;21.50;19.30;;;;;;;7.90;95.07;98999.88;5040554;28;20581;-77
2023/10/06 03:10:48;;;;;;;17.17;15.43;;;;;;;7.95;94.69;99000.25;5039023;28;20573;-77
2023/10/06 03:13:24;;;;;;;21.60;17.75;;;;;;;7.94;94.22;98998.56;5031859;28;20255;-77
2023/10/06 03:15:52;;;;;;;17.25;15.65;;;;;;;7.89;94.93;99006.28;5034619;28;20219;-76
2023/10/06 03:18:19;;;;;;;17.67;15.65;;;;;;;7.83;95.11;99001.53;5030317;28;20202;-77
2023/10/06 03:20:49;;;;;;;16.75;15.05;;;;;;;7.84;94.73;99003.22;5032542;28;20206;-77
2023/10/06 03:23:27;;;;;;;23.00;18.38;;;;;;;7.76;94.97;99011.28;5039232;28;20196;-77
2023/10/06 03:25:56;;;;;;;17.52;15.70;;;;;;;7.73;95.35;99006.22;5033075;28;20710;-77
2023/10/06 03:28:32;;;;;;;19.60;17.25;;;;;;;7.70;95.18;99006.53;5034854;28;20313;-77
2023/10/06 03:31:23;;;;;;;20.70;16.52;;;;;;;7.73;95.59;99007.06;5031538;28;20633;-77
2023/10/06 03:33:48;;;;;;;20.13;16.58;;;;;;;7.72;94.85;99009.91;5028748;28;20292;-77
2023/10/06 03:36:16;;;;;;;20.40;17.85;;;;;;;7.65;94.76;99008.84;5040374;28;20698;-77
2023/10/06 03:38:53;;;;;;;15.98;14.02;;;;;;;7.58;95.18;99007.78;5036032;28;20197;-78
2023/10/06 03:41:24;;;;;;;17.23;14.27;;;;;;;7.58;94.93;99007.78;5036929;28;20201;-77
2023/10/06 03:43:53;;;;;;;15.02;13.27;;;;;;;7.65;94.08;99009.69;5030340;28;20199;-77
2023/10/06 03:46:24;;;;;;;18.98;14.43;;;;;;;7.56;94.21;99004.41;5030803;28;20232;-77
2023/10/06 03:48:51;;;;;;;26.73;16.50;;;;;;;7.26;94.93;99003.88;5035363;28;20194;-75
2023/10/06 03:51:19;;;;;;;15.77;14.32;;;;;;;7.15;95.02;98987.16;5030915;28;20212;-76
2023/10/06 03:53:48;;;;;;;16.15;12.60;;;;;;;7.16;95.61;98997.75;5040836;28;20593;-79
2023/10/06 03:56:16;;;;;;;19.55;15.98;;;;;;;7.28;95.25;98990.25;5031415;28;20213;-73
2023/10/06 03:58:44;;;;;;;21.45;15.30;;;;;;;7.21;95.36;98981.97;5043952;28;20212;-78
2023/10/06 04:01:11;;;;;;;17.55;15.68;;;;;;;7.21;95.00;98981.97;5033054;28;20203;-78
2023/10/06 04:03:39;;;;;;;25.20;18.05;;;;;;;7.12;95.03;98990.16;5039077;28;20288;-78
2023/10/06 04:06:12;;;;;;;16.63;14.82;;;;;;;7.18;94.69;98987.66;5034959;28;20307;-79
2023/10/06 04:08:40;;;;;;;18.92;16.10;;;;;;;7.14;94.62;98983.63;5039352;28;20613;-79
2023/10/06 04:11:06;;;;;;;19.88;16.05;;;;;;;7.10;95.17;98976.88;5039846;28;20280;-79
2023/10/06 04:13:33;;;;;;;19.60;17.50;;;;;;;7.01;95.41;98977.78;5039628;28;20232;-81
2023/10/06 04:16:02;;;;;;;25.95;18.30;;;;;;;7.04;95.94;98977.47;5037870;28;20304;-78
2023/10/06 04:18:28;;;;;;;17.58;15.82;;;;;;;7.04;96.07;98978.31;5034101;28;20311;-79
2023/10/06 04:20:57;;;;;;;33.05;18.48;;;;;;;6.88;96.49;98982.72;5035288;28;20197;-81
2023/10/06 04:23:24;;;;;;;22.98;19.65;;;;;;;6.90;96.77;98980.72;5037000;28;20225;-79
2023/10/06 04:25:54;;;;;;;21.33;17.52;;;;;;;7.00;96.72;98973.41;5036226;28;20317;-78
2023/10/06 04:28:22;;;;;;;18.92;17.02;;;;;;;7.04;96.27;98972.94;5026438;28;20240;-77
2023/10/06 04:30:50;;;;;;;21.65;18.98;;;;;;;6.91;96.29;98982.41;5031965;28;20661;-76
2023/10/06 04:33:18;;;;;;;23.85;18.75;;;;;;;6.92;96.64;98978.72;5036016;28;20201;-77
2023/10/06 04:35:52;;;;;;;21.90;19.45;;;;;;;7.05;96.51;98973.78;5032016;28;20715;-76
2023/10/06 04:38:21;;;;;;;18.00;16.15;;;;;;;7.01;96.21;98975.09;5028938;28;20208;-78
2023/10/06 04:40:48;;;;;;;27.20;22.85;;;;;;;6.92;96.69;98978.72;5031675;28;20709;-76
2023/10/06 04:43:17;;;;;;;26.23;23.52;;;;;;;6.88;97.00;98982.72;5029139;28;20277;-76
2023/10/06 04:45:44;;;;;;;25.33;20.45;;;;;;;7.02;96.84;98985.72;5028454;28;20755;-76
2023/10/06 04:48:12;;;;;;;25.13;21.35;;;;;;;6.97;96.96;98979.94;5033678;28;20257;-76
2023/10/06 04:50:39;;;;;;;26.10;22.75;;;;;;;7.08;97.06;98970.78;5036323;28;20196;-76
2023/10/06 04:53:06;;;;;;;26.23;21.63;;;;;;;7.03;97.57;98983.88;5035941;28;20213;-76
2023/10/06 04:55:37;;;;;;;32.58;25.45;;;;;;;7.02;97.34;98980.31;5030816;28;20613;-80
2023/10/06 04:58:05;;;;;;;31.13;23.92;;;;;;;7.04;97.33;98980.16;5030189;28;20220;-76
2023/10/06 05:00:33;;;;;;;33.90;24.02;;;;;;;7.13;97.28;98984.63;5026556;28;20683;-76
2023/10/06 05:03:04;;;;;;;29.52;23.40;;;;;;;6.76;97.35;98943.63;5035264;28;20264;-75
2023/10/06 05:05:33;;;;;;;28.55;24.42;;;;;;;6.96;97.98;98972.03;5041625;28;20240;-77
2023/10/06 05:08:02;;;;;;;25.65;22.38;;;;;;;7.05;97.71;98965.72;5037586;28;20768;-76
2023/10/06 05:10:30;;;;;;;31.25;23.17;;;;;;;7.00;97.46;98959.97;5036255;28;20194;-77
2023/10/06 05:12:59;;;;;;;31.73;24.20;;;;;;;7.01;97.78;98962.50;5042647;28;20558;-76
2023/10/06 05:15:26;;;;;;;22.38;19.83;;;;;;;7.09;96.97;98967.09;5045039;28;20310;-76
2023/10/06 05:17:56;;;;;;;27.73;24.10;;;;;;;6.99;97.38;98969.03;5037614;28;20365;-76
2023/10/06 05:20:24;;;;;;;27.63;22.65;;;;;;;6.98;97.68;98972.72;5040328;28;20208;-76
2023/10/06 05:22:52;;;;;;;25.52;21.95;;;;;;;6.96;97.67;98974.72;5038854;28;20194;-75
2023/10/06 05:25:19;;;;;;;30.73;24.13;;;;;;;7.00;97.66;98971.56;5043691;28;20812;-76
2023/10/06 05:27:47;;;;;;;28.42;22.92;;;;;;;7.05;97.15;98969.25;5037013;28;20227;-76
2023/10/06 05:30:17;;;;;;;23.25;20.05;;;;;;;7.18;96.54;98987.66;5037000;28;20209;-76
2023/10/06 05:32:43;;;;;;;27.40;24.13;;;;;;;6.96;96.54;98991.72;5031458;28;20201;-76
2023/10/06 05:35:14;;;;;;;25.02;22.33;;;;;;;6.99;97.01;98979.78;5034163;28;20648;-76
2023/10/06 05:37:43;;;;;;;29.08;22.90;;;;;;;7.04;96.64;98982.88;5036228;28;20206;-75
2023/10/06 05:40:13;;;;;;;25.13;22.02;;;;;;;7.12;96.64;98987.47;5032217;28;20205;-76
2023/10/06 05:42:41;;;;;;;23.25;20.70;;;;;;;7.16;96.38;98992.34;5039974;28;20272;-76
2023/10/06 05:45:15;;;;;;;34.35;24.73;;;;;;;6.99;96.99;98996.78;5032969;28;20299;-76
2023/10/06 05:47:51;;;;;;;23.70;20.73;;;;;;;7.17;96.59;99006.66;5037133;28;20222;-76
2023/10/06 05:50:27;;;;;;;31.10;25.33;;;;;;;7.25;96.28;99010.28;5031676;28;22106;-76
2023/10/06 05:52:58;;;;;;;24.15;21.15;;;;;;;7.29;95.85;99011.66;5035071;28;20266;-76
2023/10/06 05:55:29;;;;;;;26.80;23.55;;;;;;;7.37;95.78;99005.47;5035946;28;20216;-76
2023/10/06 05:57:56;;;;;;;27.83;23.20;;;;;;;7.27;96.28;99007.41;5046390;28;20247;-76
2023/10/06 06:00:27;;;;;;;25.52;22.60;;;;;;;7.32;96.54;99013.19;5036332;28;20198;-76
2023/10/06 06:02:58;;;;;;;25.52;22.52;;;;;;;7.41;96.63;99012.25;5042433;28;20294;-76
2023/10/06 06:05:26;;;;;;;23.02;20.58;;;;;;;7.68;95.33;99011.22;5039147;28;20224;-76
2023/10/06 06:07:52;;;;;;;21.15;18.80;;;;;;;7.95;93.97;99011.03;5030632;28;20795;-76
2023/10/06 06:10:21;;;;;;;19.50;17.35;;;;;;;8.16;92.60;99012.44;5040121;28;20267;-76
2023/10/06 06:12:48;;;;;;;17.83;16.13;;;;;;;8.37;91.55;99016.44;5036818;28;20194;-77
2023/10/06 06:15:16;;;;;;;17.77;15.85;;;;;;;8.68;89.79;99013.16;5037038;28;20214;-76
2023/10/06 06:17:44;;;;;;;15.00;13.55;;;;;;;8.95;88.61;99017.38;5041991;28;20226;-77
2023/10/06 06:20:18;;;;;;;14.65;13.15;;;;;;;9.24;87.74;99012.31;5040046;28;20201;-76
2023/10/06 06:22:55;;;;;;;13.98;12.18;;;;;;;9.37;86.59;99020.78;5041899;28;20663;-76
2023/10/06 06:25:23;;;;;;;12.25;11.10;;;;;;;9.35;86.17;99020.09;5033608;28;20219;-76
2023/10/06 06:27:50;;;;;;;11.45;8.98;;;;;;;9.28;85.33;99015.53;5034433;28;20278;-77
2023/10/06 06:30:18;;;;;;;11.38;8.93;;;;;;;9.62;84.50;99026.13;5031702;28;20250;-77
2023/10/06 06:32:48;;;;;;;12.45;9.20;;;;;;;9.59;83.85;99018.38;5036155;28;20199;-76
2023/10/06 06:35:19;;;;;;;9.50;8.50;;;;;;;9.68;82.72;99022.75;5034895;28;20219;-77
2023/10/06 06:37:50;;;;;;;9.48;8.30;;;;;;;9.99;81.38;99012.84;5041172;28;20201;-77
2023/10/06 06:40:19;;;;;;;8.95;7.20;;;;;;;10.16;80.50;99010.06;5039216;28;20630;-76
2023/10/06 06:42:46;;;;;;;8.80;6.68;;;;;;;10.50;79.76;99018.72;5036837;28;20221;-77
2023/10/06 06:45:13;;;;;;;7.10;6.40;;;;;;;10.55;77.88;99010.09;5032424;28;20228;-76
2023/10/06 06:47:41;;;;;;;8.30;7.30;;;;;;;10.63;77.71;99018.16;5032786;28;20307;-77
2023/10/06 06:50:10;;;;;;;8.70;7.15;;;;;;;10.77;77.39;99015.50;5039732;28;20212;-76
2023/10/06 06:52:38;;;;;;;7.38;6.70;;;;;;;10.95;76.88;99012.53;5035502;28;20292;-76
2023/10/06 06:55:12;;;;;;;7.50;6.38;;;;;;;11.41;75.50;99007.88;5029975;28;20720;-77
2023/10/06 06:57:43;;;;;;;8.55;6.25;;;;;;;11.84;72.90;99020.91;5032403;28;20681;-77
2023/10/06 07:00:15;;;;;;;9.20;7.10;;;;;;;11.82;72.93;99010.22;5047460;28;20251;-76
2023/10/06 07:02:44;;;;;;;8.40;6.45;;;;;;;12.13;71.23;99006.50;5040776;28;20202;-77
2023/10/06 07:05:12;;;;;;;10.45;6.63;;;;;;;12.21;71.15;99014.53;5033316;28;20304;-77
2023/10/06 07:07:42;;;;;;;9.27;6.88;;;;;;;12.69;69.16;99019.31;5037136;28;20256;-76
2023/10/06 07:10:13;;;;;;;6.95;6.05;;;;;;;12.69;69.14;99013.03;5038495;28;20233;-77
2023/10/06 07:12:40;;;;;;;8.70;6.83;;;;;;;12.78;67.82;99012.72;5047190;28;20294;-76
2023/10/06 07:15:14;;;;;;;9.00;6.20;;;;;;;13.19;67.79;99023.00;5033770;28;20524;-76
2023/10/06 07:17:45;;;;;;;8.80;6.10;;;;;;;13.81;65.41;99008.66;5031434;28;21050;-76
2023/10/06 07:20:16;;;;;;;7.03;6.20;;;;;;;14.36;64.00;99006.88;5036406;28;20937;-76
2023/10/06 07:22:48;;;;;;;7.03;5.80;;;;;;;14.51;62.62;99004.88;5045234;28;20495;-76
2023/10/06 07:25:16;;;;;;;8.70;5.97;;;;;;;14.57;62.21;99014.13;5032100;28;20477;-76
2023/10/06 07:27:44;;;;;;;6.53;5.93;;;;;;;15.02;60.91;99007.13;5031419;28;20475;-76
2023/10/06 07:30:14;;;;;;;7.50;5.90;;;;;;;15.34;59.90;99019.94;5032604;28;20463;-76
2023/10/06 07:32:42;;;;;;;8.50;7.70;;;;;;;14.33;61.96;99020.88;5038963;28;20461;-76
2023/10/06 07:35:09;;;;;;;10.57;7.93;;;;;;;13.77;64.05;99027.25;5030867;28;20544;-75
2023/10/06 07:37:37;;;;;;;10.97;7.90;;;;;;;13.99;65.08;99028.03;5031396;28;20498;-75
2023/10/06 07:40:12;;;;;;;10.23;7.27;;;;;;;14.18;63.96;99021.03;5047718;28;20457;-75
2023/10/06 07:42:41;;;;;;;8.90;7.20;;;;;;;13.69;65.72;99021.13;5034658;28;20458;-75
2023/10/06 07:45:09;;;;;;;8.30;6.93;;;;;;;14.73;63.52;99021.94;5028879;28;20558;-75
2023/10/06 07:47:36;;;;;;;9.03;7.10;;;;;;;15.04;61.39;99015.94;5031221;28;21013;-75
2023/10/06 07:50:04;;;;;;;8.33;6.83;;;;;;;15.40;60.04;99018.28;5030141;28;20488;-76
2023/10/06 07:52:31;;;;;;;8.27;7.23;;;;;;;15.65;59.41;99021.25;5034027;28;20547;-76
2023/10/06 07:54:58;;;;;;;10.30;8.00;;;;;;;16.01;58.37;99023.53;5042352;28;20483;-76
2023/10/06 07:57:32;;;;;;;8.47;7.20;;;;;;;16.64;57.18;99018.31;5034490;28;20471;-76
2023/10/06 08:00:04;;;;;;;8.73;6.73;;;;;;;16.56;57.20;99024.84;5034232;28;20488;-76
2023/10/06 08:02:30;;;;;;;8.10;7.30;;;;;;;16.66;56.22;99027.97;5036105;28;20554;-76
2023/10/06 08:04:57;;;;;;;9.03;6.40;;;;;;;16.56;57.27;99022.13;5037771;28;20998;-76
2023/10/06 08:07:27;;;;;;;8.50;7.00;;;;;;;16.72;56.51;99027.13;5031173;28;20535;-76
2023/10/06 08:09:55;;;;;;;9.47;6.47;;;;;;;16.64;56.56;99019.16;5037557;28;20540;-76
2023/10/06 08:12:23;;;;;;;8.90;6.90;;;;;;;17.21;55.20;99022.84;5040209;28;20455;-76
2023/10/06 08:14:51;;;;;;;7.37;6.60;;;;;;;17.31;54.61;99019.63;5039183;28;20456;-76
2023/10/06 08:17:19;;;;;;;8.07;6.80;;;;;;;18.25;52.65;99013.09;5033118;28;20517;-77
2023/10/06 08:19:47;;;;;;;9.37;8.10;;;;;;;18.12;52.31;98998.50;5034785;28;20469;-76
2023/10/06 08:22:13;;;;;;;8.43;7.50;;;;;;;18.14;52.09;99003.75;5030434;28;20598;-76
2023/10/06 08:24:41;;;;;;;10.97;7.00;;;;;;;18.20;52.22;99008.31;5030580;28;20482;-76
2023/10/06 08:27:07;;;;;;;7.83;7.00;;;;;;;18.88;50.49;99004.56;5034573;28;20552;-76
2023/10/06 08:29:34;;;;;;;9.03;7.30;;;;;;;19.15;49.40;99005.88;5044873;28;20499;-76
2023/10/06 08:32:04;;;;;;;7.43;6.47;;;;;;;19.65;48.66;99011.03;5036450;28;22945;-76
2023/10/06 08:34:31;;;;;;;7.67;6.87;;;;;;;19.50;48.40;99007.84;5035669;28;20574;-76
2023/10/06 08:37:00;;;;;;;11.90;7.47;;;;;;;19.26;48.06;99012.44;5036371;28;20877;-76
2023/10/06 08:39:38;;;;;;;10.80;6.90;;;;;;;19.15;49.72;99014.13;5030101;28;20461;-75
2023/10/06 08:42:08;;;;;;;7.07;6.37;;;;;;;20.27;46.95;99014.13;5043834;28;20465;-74
2023/10/06 08:44:37;;;;;;;8.30;6.57;;;;;;;20.42;45.85;99020.03;5031113;28;20478;-75
2023/10/06 08:47:07;;;;;;;9.17;6.80;;;;;;;20.59;45.41;99018.19;5044155;28;20664;-75
2023/10/06 08:49:34;;;;;;;8.03;6.97;;;;;;;20.81;45.57;99021.09;5045824;28;20513;-76
2023/10/06 08:52:03;;;;;;;8.27;6.50;;;;;;;20.00;47.10;99017.38;5041791;28;20545;-76
2023/10/06 08:54:31;;;;;;;8.03;6.50;;;;;;;20.66;45.72;99012.53;5042427;28;21028;-76
2023/10/06 08:56:58;;;;;;;8.37;6.60;;;;;;;19.19;48.88;99019.94;5041667;28;20457;-76
2023/10/06 08:59:25;;;;;;;7.70;6.60;;;;;;;20.70;45.62;99020.06;5036832;28;20540;-76
2023/10/06 09:01:52;;;;;;;7.50;6.53;;;;;;;20.44;45.91;99004.13;5047984;28;20578;-76
2023/10/06 09:04:21;;;;;;;8.70;6.87;;;;;;;20.72;45.62;99011.56;5043642;28;21085;-76
2023/10/06 09:07:07;;;;;;;7.23;6.50;;;;;;;20.89;44.80;99012.47;5046284;28;20971;-76
2023/10/06 09:09:34;;;;;;;9.73;7.17;;;;;;;21.45;43.15;99000.59;5046156;28;20483;-76
2023/10/06 09:12:03;;;;;;;7.50;5.83;;;;;;;22.06;42.62;99001.63;5034371;28;21007;-76
2023/10/06 09:14:29;;;;;;;6.73;5.70;;;;;;;22.18;41.72;98997.94;5038360;28;20479;-76
2023/10/06 09:17:01;;;;;;;7.47;6.67;;;;;;;22.33;40.98;99003.69;5038336;28;21276;-76
2023/10/06 09:19:47;;;;;;;6.07;5.40;;;;;;;22.67;40.12;99001.63;5037037;28;20464;-76
2023/10/06 09:22:14;;;;;;;8.30;6.70;;;;;;;23.04;40.00;99007.38;5039197;28;20464;-74
2023/10/06 09:24:41;;;;;;;6.03;5.50;;;;;;;22.99;39.73;99007.31;5045975;28;20566;-78
2023/10/06 09:27:21;;;;;;;7.23;6.40;;;;;;;23.00;39.83;98989.63;5035993;28;20529;-77
2023/10/06 09:29:48;;;;;;;8.47;5.90;;;;;;;22.59;40.33;98986.34;5037767;28;20495;-77
2023/10/06 09:32:23;;;;;;;7.43;6.60;;;;;;;22.71;40.41;98987.06;5035302;28;20510;-77
2023/10/06 09:34:53;;;;;;;10.07;7.03;;;;;;;21.34;42.45;98982.25;5031199;28;20481;-78
2023/10/06 09:37:20;;;;;;;8.70;6.60;;;;;;;22.25;41.22;98979.28;5039800;28;20544;-78
2023/10/06 09:39:56;;;;;;;6.93;6.23;;;;;;;21.86;42.49;98984.75;5044044;28;20552;-78
2023/10/06 09:42:27;;;;;;;8.03;6.60;;;;;;;22.69;41.25;98972.69;5033607;28;20460;-78
2023/10/06 09:45:06;;;;;;;7.27;6.30;;;;;;;21.54;42.65;98979.00;5032217;28;20532;-77
2023/10/06 09:47:35;;;;;;;10.20;7.13;;;;;;;22.59;41.16;98972.56;5037574;28;20458;-77
2023/10/06 09:50:04;;;;;;;7.97;6.73;;;;;;;22.66;40.20;98972.38;5041480;28;20474;-77
2023/10/06 09:52:35;;;;;;;8.03;6.37;;;;;;;22.81;40.37;98968.97;5037005;28;20463;-77
2023/10/06 09:55:04;;;;;;;9.43;6.83;;;;;;;23.04;40.26;98963.19;5044562;28;20482;-77
2023/10/06 09:57:32;;;;;;;7.90;6.00;;;;;;;23.68;39.44;98969.59;5037532;28;20468;-77
2023/10/06 10:00:01;;;;;;;8.27;6.73;;;;;;;24.21;37.93;98961.38;5034274;28;20456;-77
2023/10/06 10:02:29;;;;;;;9.07;7.00;;;;;;;23.59;39.11;98949.06;5039359;28;20512;-77
2023/10/06 10:05:01;;;;;;;10.30;7.07;;;;;;;23.62;38.94;98965.13;5031751;28;21534;-77
2023/10/06 10:07:30;;;;;;;7.43;6.63;;;;;;;23.32;38.79;98957.38;5038202;28;20471;-77
2023/10/06 10:09:57;;;;;;;8.50;7.30;;;;;;;21.68;43.17;98954.69;5031519;28;20476;-77
2023/10/06 10:12:34;;;;;;;9.33;7.30;;;;;;;22.70;40.86;98951.44;5037590;28;20489;-77
2023/10/06 10:15:15;;;;;;;9.07;6.33;;;;;;;22.46;41.16;98961.91;5038210;28;20487;-77
2023/10/06 10:17:51;;;;;;;7.60;6.90;;;;;;;21.61;42.73;98960.38;5040199;28;20449;-77
2023/10/06 10:20:18;;;;;;;7.83;6.67;;;;;;;22.73;40.19;98956.47;5041502;28;20450;-77
2023/10/06 10:22:46;;;;;;;10.20;6.53;;;;;;;23.68;38.42;98941.13;5041361;28;20455;-77
2023/10/06 10:25:13;;;;;;;7.80;6.53;;;;;;;24.13;38.15;98960.78;5042527;28;20487;-78
2023/10/06 10:27:40;;;;;;;6.57;5.87;;;;;;;24.66;36.65;98964.41;5040165;28;20949;-77
2023/10/06 10:30:11;;;;;;;9.13;6.73;;;;;;;25.00;36.20;98958.44;5041815;28;20471;-77
2023/10/06 10:32:42;;;;;;;9.63;7.20;;;;;;;24.78;36.64;98956.66;5044445;28;20559;-77
2023/10/06 10:35:12;;;;;;;6.60;5.60;;;;;;;24.93;35.82;98947.59;5037466;28;20864;-78
2023/10/06 10:38:02;;;;;;;6.67;5.30;;;;;;;23.58;37.94;98952.09;5040402;28;20521;-77
2023/10/06 10:40:31;;;;;;;7.03;6.33;;;;;;;24.45;37.20;98940.47;5037274;28;20832;-78
2023/10/06 10:43:04;;;;;;;8.73;6.93;;;;;;;24.68;36.02;98939.22;5037508;28;20451;-77
2023/10/06 10:45:35;;;;;;;7.20;5.70;;;;;;;24.87;36.11;98936.75;5032832;28;20510;-77
2023/10/06 10:48:06;;;;;;;8.70;6.33;;;;;;;25.41;34.83;98937.97;5040329;28;20468;-78
2023/10/06 10:51:01;;;;;;;5.80;5.20;;;;;;;25.56;35.34;98925.22;5044912;28;20673;-78
2023/10/06 10:53:31;;;;;;;8.40;6.37;;;;;;;25.97;33.85;98926.88;5041605;28;20964;-78
2023/10/06 10:56:01;;;;;;;8.40;6.17;;;;;;;26.03;33.49;98922.97;5038134;28;20559;-78
2023/10/06 10:58:53;;;;;;;8.20;5.83;;;;;;;24.65;35.86;98923.97;5036110;28;20451;-78
2023/10/06 11:01:31;;;;;;;6.53;5.73;;;;;;;25.39;34.32;98906.91;5040654;28;20473;-78
2023/10/06 11:04:29;;;;;;;8.03;5.93;;;;;;;25.92;33.71;98903.88;5034562;28;20524;-78
2023/10/06 11:06:58;;;;;;;8.20;6.63;;;;;;;25.70;33.50;98905.00;5037793;28;20573;-77
2023/10/06 11:09:29;;;;;;;7.03;6.30;;;;;;;24.75;35.82;98907.38;5031614;28;20554;-77
2023/10/06 11:11:58;;;;;;;7.83;5.93;;;;;;;24.82;34.79;98897.97;5038053;28;20551;-77
2023/10/06 11:14:27;;;;;;;7.83;6.20;;;;;;;24.39;36.12;98897.28;5035369;28;20506;-76
2023/10/06 11:16:59;;;;;;;6.77;6.00;;;;;;;24.41;36.06;98893.13;5034424;28;20468;-76
2023/10/06 11:19:26;;;;;;;8.00;5.83;;;;;;;25.08;34.92;98883.91;5035117;28;20503;-77
2023/10/06 11:21:53;;;;;;;6.33;4.93;;;;;;;25.52;33.72;98879.75;5037112;28;20891;-77
2023/10/06 11:24:28;;;;;;;6.70;5.87;;;;;;;25.85;32.26;98875.56;5032330;28;20483;-77
2023/10/06 11:26:55;;;;;;;6.57;5.40;;;;;;;26.01;31.86;98868.84;5035927;28;20462;-77
2023/10/06 11:29:31;;;;;;;8.30;5.87;;;;;;;25.98;32.29;98867.50;5037104;28;20476;-77
2023/10/06 11:32:00;;;;;;;8.43;5.97;;;;;;;23.92;35.97;98862.19;5034084;28;20459;-77
2023/10/06 11:34:27;;;;;;;6.37;4.80;;;;;;;24.71;34.94;98884.09;5034523;28;20482;-76
2023/10/06 11:36:56;;;;;;;6.23;5.50;;;;;;;25.74;32.72;98861.72;5046150;28;20951;-77
2023/10/06 11:39:24;;;;;;;7.00;5.63;;;;;;;26.12;32.82;98864.94;5041052;28;20555;-77
2023/10/06 11:42:33;;;;;;;7.07;5.70;;;;;;;26.53;32.40;98859.25;5032062;28;20467;-77